Time;durP1;ratioP1;P1;durP2;ratioP2;P2;SDS_P1;SDS_P2;PMS_P1;PMS_P2;Temp;Humidity;BMP_temperature;BMP_pressure;BME280_temperature;BME280_humidity;BME280_pressure;Samples;Min_cycle;Max_cycle;Signal;HPM_P1;HPM_P2
2021/03/06 00:01:17;;;;;;;12.63;7.55;;;;;;;-1.67;68.97;101235.72;4931654;29;20054;-71
2021/03/06 00:03:42;;;;;;;10.57;6.07;;;;;;;-1.74;69.43;101234.72;4948431;29;20523;-71
2021/03/06 00:06:07;;;;;;;11.40;7.65;;;;;;;-1.78;68.92;101241.50;4948445;29;20043;-71
2021/03/06 00:08:33;;;;;;;9.32;6.03;;;;;;;-1.80;69.46;101232.84;4948606;28;20458;-72
2021/03/06 00:10:58;;;;;;;9.93;6.78;;;;;;;-1.78;69.34;101241.50;4950299;28;20398;-71
2021/03/06 00:13:27;;;;;;;11.10;6.88;;;;;;;-1.74;69.45;101237.31;4958942;28;20069;-71
2021/03/06 00:15:52;;;;;;;14.18;7.93;;;;;;;-1.81;69.25;101235.41;4967137;28;20043;-70
2021/03/06 00:18:18;;;;;;;12.18;6.30;;;;;;;-1.83;69.27;101240.53;4959143;28;20051;-71
2021/03/06 00:20:43;;;;;;;10.13;6.38;;;;;;;-1.80;69.63;101248.34;4965669;28;20062;-71
2021/03/06 00:23:08;;;;;;;9.65;6.55;;;;;;;-1.79;69.23;101238.91;4950993;28;20045;-70
2021/03/06 00:25:34;;;;;;;7.95;5.85;;;;;;;-1.83;69.44;101240.53;4948034;28;20499;-71
2021/03/06 00:27:59;;;;;;;9.73;5.57;;;;;;;-1.74;69.86;101234.72;4962483;28;20401;-50
2021/03/06 00:30:25;;;;;;;10.50;7.15;;;;;;;-1.60;69.09;101242.78;4976992;28;20053;-73
2021/03/06 00:32:50;;;;;;;15.40;6.90;;;;;;;-1.67;68.90;101246.06;4985578;28;20053;-69
2021/03/06 00:35:16;;;;;;;9.38;6.50;;;;;;;-1.78;68.65;101245.81;4981254;28;20035;-72
2021/03/06 00:37:41;;;;;;;12.25;7.57;;;;;;;-1.85;69.98;101244.78;4963367;28;20038;-70
2021/03/06 00:40:09;;;;;;;12.25;6.30;;;;;;;-1.90;69.23;101248.97;4973060;28;20086;-70
2021/03/06 00:42:35;;;;;;;10.45;6.35;;;;;;;-2.01;69.68;101253.00;4973900;28;20042;-71
2021/03/06 00:45:00;;;;;;;12.63;7.35;;;;;;;-2.06;69.73;101250.28;4973966;28;20031;-71
2021/03/06 00:47:26;;;;;;;11.68;6.40;;;;;;;-2.07;69.82;101245.94;4971119;28;20035;-71
2021/03/06 00:49:51;;;;;;;8.35;6.18;;;;;;;-2.04;70.06;101246.03;4960198;28;20043;-70
2021/03/06 00:52:17;;;;;;;17.27;7.75;;;;;;;-2.00;70.27;101252.16;4972875;28;20050;-70
2021/03/06 00:54:42;;;;;;;9.73;6.30;;;;;;;-1.97;69.99;101245.38;4973506;28;20041;-69
2021/03/06 00:57:07;;;;;;;10.35;5.68;;;;;;;-1.96;69.39;101259.16;4973781;28;20038;-70
2021/03/06 00:59:33;;;;;;;8.85;5.95;;;;;;;-1.98;70.20;101259.09;4974779;28;20031;-71
2021/03/06 01:01:58;;;;;;;8.50;5.30;;;;;;;-1.99;69.83;101256.50;4970461;28;20035;-70
2021/03/06 01:04:24;;;;;;;9.32;6.78;;;;;;;-1.98;69.78;101263.41;4959204;28;20040;-71
2021/03/06 01:06:49;;;;;;;9.80;6.57;;;;;;;-2.03;70.12;101267.59;4947189;28;20043;-70
2021/03/06 01:09:14;;;;;;;9.73;6.20;;;;;;;-2.09;70.15;101257.06;4953481;29;20050;-72
2021/03/06 01:11:40;;;;;;;10.85;6.13;;;;;;;-2.14;70.07;101256.97;4954258;29;20039;-69
2021/03/06 01:14:05;;;;;;;10.00;7.25;;;;;;;-2.16;70.73;101262.09;4947753;28;20110;-70
2021/03/06 01:16:31;;;;;;;9.73;6.35;;;;;;;-2.16;70.87;101253.47;4991282;28;20042;-70
2021/03/06 01:18:56;;;;;;;10.63;7.50;;;;;;;-2.22;70.79;101258.47;4990341;28;20442;-71
2021/03/06 01:21:22;;;;;;;11.10;7.20;;;;;;;-2.31;71.80;101258.22;4991659;28;20058;-69
2021/03/06 01:23:47;;;;;;;16.65;8.60;;;;;;;-2.35;71.77;101259.00;4991100;28;20034;-71
2021/03/06 01:26:13;;;;;;;12.82;7.60;;;;;;;-2.38;71.91;101255.47;4991423;28;20044;-71
2021/03/06 01:28:38;;;;;;;12.88;7.18;;;;;;;-2.33;70.89;101249.56;4990507;28;20382;-71
2021/03/06 01:31:03;;;;;;;12.50;6.82;;;;;;;-2.30;71.03;101241.91;4987774;28;20042;-70
2021/03/06 01:33:29;;;;;;;9.38;6.25;;;;;;;-2.30;71.12;101247.06;4982414;28;20114;-71
2021/03/06 01:35:54;;;;;;;9.77;5.55;;;;;;;-2.30;70.35;101247.94;4966043;28;20039;-70
2021/03/06 01:38:19;;;;;;;10.48;6.80;;;;;;;-2.30;71.11;101239.31;4953553;28;20036;-71
2021/03/06 01:40:45;;;;;;;8.32;5.82;;;;;;;-2.32;70.49;101233.22;4953590;28;20074;-71
2021/03/06 01:43:12;;;;;;;8.55;5.65;;;;;;;-2.32;70.08;101233.22;4953050;28;20043;-71
2021/03/06 01:45:38;;;;;;;14.75;6.25;;;;;;;-2.34;70.49;101230.59;4953011;28;20039;-70
2021/03/06 01:48:05;;;;;;;11.45;5.82;;;;;;;-2.37;70.39;101233.97;4959054;28;20813;-70
2021/03/06 01:50:35;;;;;;;9.45;6.68;;;;;;;-2.37;70.59;101228.81;4972141;28;20534;-70
2021/03/06 01:53:01;;;;;;;15.98;7.63;;;;;;;-2.40;70.97;101231.31;4972259;28;20042;-70
2021/03/06 01:55:29;;;;;;;12.32;7.28;;;;;;;-2.40;71.06;101228.72;4972064;28;20046;-71
2021/03/06 01:57:54;;;;;;;15.07;7.50;;;;;;;-2.41;71.20;101233.88;4971565;28;20034;-71
2021/03/06 02:00:21;;;;;;;13.52;6.95;;;;;;;-2.41;70.94;101231.28;4972459;28;20401;-71
2021/03/06 02:02:50;;;;;;;15.55;7.50;;;;;;;-2.42;71.25;101232.97;4958101;28;20061;-70
2021/03/06 02:05:17;;;;;;;17.73;7.90;;;;;;;-2.47;71.83;101231.97;4972006;28;20125;-70
2021/03/06 02:07:43;;;;;;;14.20;7.40;;;;;;;-2.49;71.84;101235.34;4970978;28;20065;-70
2021/03/06 02:10:11;;;;;;;11.73;6.22;;;;;;;-2.50;72.14;101233.63;4971807;28;20031;-70
2021/03/06 02:12:58;;;;;;;13.55;6.90;;;;;;;-2.46;71.32;101230.28;4972340;28;20042;-70
2021/03/06 02:15:40;;;;;;;9.45;6.60;;;;;;;-2.45;70.71;101230.31;4972122;28;20410;-70
2021/03/06 02:18:24;;;;;;;10.25;6.93;;;;;;;-2.44;71.75;101234.63;4971885;28;20033;-70
2021/03/06 02:21:26;;;;;;;9.38;6.30;;;;;;;-2.45;71.00;101225.16;4973211;28;20109;-70
2021/03/06 02:24:13;;;;;;;10.88;6.82;;;;;;;-2.47;71.05;101221.66;4971728;28;20467;-71
2021/03/06 02:27:01;;;;;;;8.55;5.25;;;;;;;-2.48;71.54;101222.50;4968574;28;20111;-70
2021/03/06 02:29:41;;;;;;;8.82;5.82;;;;;;;-2.47;71.13;101219.06;4971582;28;20042;-70
2021/03/06 02:32:15;;;;;;;10.65;6.82;;;;;;;-2.49;70.89;101222.44;4971353;28;20042;-71
2021/03/06 02:34:45;;;;;;;10.82;6.85;;;;;;;-2.52;70.93;101220.66;4971200;28;20073;-70
2021/03/06 02:37:12;;;;;;;14.73;7.25;;;;;;;-2.62;71.48;101216.94;4970861;28;20093;-70
2021/03/06 02:39:43;;;;;;;10.50;7.22;;;;;;;-2.63;71.56;101222.09;4971588;28;20086;-70
2021/03/06 02:42:12;;;;;;;11.13;7.10;;;;;;;-2.66;71.83;101215.13;4971527;28;20562;-70
2021/03/06 02:44:38;;;;;;;10.60;7.20;;;;;;;-2.67;72.81;101209.91;4971605;28;20038;-71
2021/03/06 02:47:04;;;;;;;9.45;6.85;;;;;;;-2.68;72.52;101210.78;4971197;28;20035;-70
2021/03/06 02:49:29;;;;;;;9.98;6.22;;;;;;;-2.68;72.49;101209.06;4971421;28;20398;-71
2021/03/06 02:51:55;;;;;;;11.80;6.40;;;;;;;-2.67;72.35;101207.34;4970605;28;20078;-70
2021/03/06 02:54:20;;;;;;;13.82;5.68;;;;;;;-2.65;71.72;101206.56;4954266;28;20035;-70
2021/03/06 02:56:46;;;;;;;8.27;5.68;;;;;;;-2.65;71.39;101213.44;4971173;28;20112;-70
2021/03/06 02:59:33;;;;;;;9.15;5.47;;;;;;;-2.65;71.70;101216.88;4971193;28;20038;-69
2021/03/06 03:02:27;;;;;;;16.58;8.82;;;;;;;-2.64;71.58;101213.44;4968145;28;20625;-70
2021/03/06 03:05:37;;;;;;;10.73;5.97;;;;;;;-2.67;71.66;101203.03;4952946;28;20058;-71
2021/03/06 03:08:10;;;;;;;10.30;6.10;;;;;;;-2.69;71.50;101211.59;4872883;29;20069;-71
2021/03/06 03:10:38;;;;;;;8.25;5.88;;;;;;;-2.70;72.17;101221.03;4943309;29;20047;-71
2021/03/06 03:13:21;;;;;;;9.57;6.82;;;;;;;-2.74;71.87;101218.31;4951077;29;20031;-71
2021/03/06 03:15:53;;;;;;;6.68;5.28;;;;;;;-2.74;71.92;101224.34;4955398;28;20122;-71
2021/03/06 03:18:25;;;;;;;16.98;6.90;;;;;;;-2.78;72.49;101225.13;4989244;28;20034;-71
2021/03/06 03:20:58;;;;;;;12.63;8.45;;;;;;;-2.84;72.15;101227.50;4991880;28;20030;-70
2021/03/06 03:23:29;;;;;;;11.88;7.38;;;;;;;-2.88;72.43;101229.16;4992450;28;20402;-71
2021/03/06 03:25:57;;;;;;;13.68;6.53;;;;;;;-2.87;72.14;101230.88;4990326;28;20073;-71
2021/03/06 03:28:23;;;;;;;8.95;6.30;;;;;;;-2.87;72.32;101227.44;4989997;28;20117;-71
2021/03/06 03:30:49;;;;;;;11.40;7.25;;;;;;;-2.87;72.10;101232.59;4982148;28;20078;-71
2021/03/06 03:33:16;;;;;;;11.20;7.43;;;;;;;-2.91;72.94;101231.63;4970616;28;20513;-71
2021/03/06 03:35:42;;;;;;;8.10;5.15;;;;;;;-2.91;72.25;101230.75;4974282;28;20038;-71
2021/03/06 03:38:09;;;;;;;10.02;7.03;;;;;;;-2.92;72.29;101227.31;4970233;28;20390;-71
2021/03/06 03:40:35;;;;;;;14.18;8.77;;;;;;;-2.95;72.81;101229.78;4951961;28;20039;-71
2021/03/06 03:43:02;;;;;;;10.70;7.45;;;;;;;-3.00;72.51;101223.63;4957831;29;20039;-71
2021/03/06 03:45:28;;;;;;;10.15;6.72;;;;;;;-3.01;72.20;101224.44;4946602;29;20038;-69
2021/03/06 03:47:53;;;;;;;10.15;6.90;;;;;;;-2.99;71.91;101225.38;4958889;28;20499;-72
2021/03/06 03:50:19;;;;;;;10.60;6.82;;;;;;;-3.00;71.58;101226.22;4952558;28;20031;-71
2021/03/06 03:52:49;;;;;;;8.43;5.18;;;;;;;-2.99;72.05;101227.94;4952732;29;20061;-72
2021/03/06 03:55:16;;;;;;;9.43;6.70;;;;;;;-3.05;72.32;101226.06;4951408;28;20419;-71
2021/03/06 03:57:47;;;;;;;11.43;6.85;;;;;;;-3.07;72.60;101221.69;4950727;28;20126;-71
2021/03/06 04:00:15;;;;;;;11.07;6.28;;;;;;;-3.04;72.49;101220.06;4951398;28;20043;-70
2021/03/06 04:02:41;;;;;;;10.95;7.85;;;;;;;-3.05;72.94;101220.06;4967662;28;20035;-71
2021/03/06 04:05:09;;;;;;;11.20;5.22;;;;;;;-3.06;72.80;101226.88;4957221;28;20038;-71
2021/03/06 04:07:51;;;;;;;9.75;6.50;;;;;;;-3.08;73.22;101222.50;4975186;28;20026;-71
2021/03/06 04:10:19;;;;;;;10.35;6.03;;;;;;;-3.10;72.66;101227.66;4974563;28;20517;-71
2021/03/06 04:12:46;;;;;;;10.88;7.47;;;;;;;-3.13;72.40;101230.13;4974297;28;20494;-71
2021/03/06 04:15:13;;;;;;;8.85;7.28;;;;;;;-3.15;72.99;101230.91;4974895;28;20046;-71
2021/03/06 04:17:39;;;;;;;8.27;5.73;;;;;;;-3.14;72.35;101243.84;4974515;28;20039;-71
2021/03/06 04:20:06;;;;;;;13.45;7.80;;;;;;;-3.14;73.01;101240.41;4974099;28;20050;-72
2021/03/06 04:22:31;;;;;;;9.30;6.33;;;;;;;-3.13;72.13;101234.41;4957406;28;20055;-72
2021/03/06 04:24:57;;;;;;;13.63;7.22;;;;;;;-3.19;72.61;101241.97;4955371;29;20035;-70
2021/03/06 04:27:23;;;;;;;13.15;8.43;;;;;;;-3.22;73.56;101239.28;4958911;28;20059;-71
2021/03/06 04:29:49;;;;;;;19.15;9.77;;;;;;;-3.27;72.58;101244.31;4968293;28;20038;-72
2021/03/06 04:32:14;;;;;;;10.75;7.25;;;;;;;-3.27;72.93;101246.91;4959186;28;20043;-71
2021/03/06 04:34:40;;;;;;;10.03;7.97;;;;;;;-3.28;72.58;101246.00;4955987;28;20031;-71
2021/03/06 04:37:05;;;;;;;13.25;7.47;;;;;;;-3.27;72.27;101244.31;4947435;29;20498;-71
2021/03/06 04:39:31;;;;;;;13.07;8.10;;;;;;;-3.25;72.47;101248.69;4954311;28;20031;-72
2021/03/06 04:41:56;;;;;;;10.30;6.65;;;;;;;-3.26;72.30;101253.78;4964512;28;20085;-71
2021/03/06 04:44:21;;;;;;;10.23;7.30;;;;;;;-3.28;72.52;101247.72;4973767;28;20394;-72
2021/03/06 04:46:47;;;;;;;15.57;8.37;;;;;;;-3.33;73.54;101259.59;4971726;28;20037;-72
2021/03/06 04:49:12;;;;;;;12.27;8.40;;;;;;;-3.34;72.88;101250.13;4972511;28;20074;-70
2021/03/06 04:51:38;;;;;;;13.23;7.20;;;;;;;-3.36;73.04;101252.63;4973634;28;20030;-70
2021/03/06 04:54:03;;;;;;;9.60;6.97;;;;;;;-3.35;73.14;101250.94;4973131;28;20035;-71
2021/03/06 04:56:29;;;;;;;10.17;8.00;;;;;;;-3.36;73.63;101254.34;4955821;28;20050;-71
2021/03/06 04:58:54;;;;;;;14.80;9.00;;;;;;;-3.40;72.99;101250.78;4973917;28;20113;-71
2021/03/06 05:01:19;;;;;;;13.23;8.87;;;;;;;-3.40;72.82;101253.34;4973065;28;20045;-71
2021/03/06 05:03:45;;;;;;;14.02;7.50;;;;;;;-3.41;73.56;101245.59;4973189;28;20038;-71
2021/03/06 05:06:11;;;;;;;9.60;7.30;;;;;;;-3.40;73.25;101249.91;4973102;28;20054;-71
2021/03/06 05:08:39;;;;;;;10.97;7.83;;;;;;;-3.43;73.73;101252.41;4972591;28;20043;-71
2021/03/06 05:11:05;;;;;;;12.53;7.53;;;;;;;-3.43;72.77;101245.53;4973201;28;20035;-71
2021/03/06 05:13:30;;;;;;;10.20;7.27;;;;;;;-3.45;73.56;101244.59;4973138;28;20390;-71
2021/03/06 05:15:55;;;;;;;9.20;7.23;;;;;;;-3.41;73.26;101250.75;4973600;28;20045;-71
2021/03/06 05:18:21;;;;;;;14.93;8.27;;;;;;;-3.37;73.73;101256.06;4972456;28;20035;-70
2021/03/06 05:20:46;;;;;;;9.48;7.13;;;;;;;-3.36;73.00;101259.50;4973007;28;20125;-71
2021/03/06 05:23:11;;;;;;;12.10;7.97;;;;;;;-3.37;73.06;101257.72;4972159;28;20039;-69
2021/03/06 05:25:37;;;;;;;16.95;8.07;;;;;;;-3.45;72.83;101254.91;4972411;28;20027;-70
2021/03/06 05:28:03;;;;;;;11.40;8.50;;;;;;;-3.48;72.43;101260.84;4956624;28;20038;-72
2021/03/06 05:30:28;;;;;;;11.88;7.80;;;;;;;-3.48;73.16;101257.41;4972550;28;20563;-70
2021/03/06 05:32:53;;;;;;;12.97;9.97;;;;;;;-3.50;73.71;101259.06;4972365;28;20035;-71
2021/03/06 05:35:19;;;;;;;11.77;6.20;;;;;;;-3.49;72.93;101260.81;4972325;28;20039;-70
2021/03/06 05:37:44;;;;;;;15.83;8.90;;;;;;;-3.46;72.45;101264.38;4972022;28;20035;-72
2021/03/06 05:40:10;;;;;;;14.77;7.63;;;;;;;-3.50;72.56;101259.94;4972557;28;20058;-72
2021/03/06 05:42:36;;;;;;;8.50;6.73;;;;;;;-3.50;72.49;101264.22;4973044;28;20027;-72
2021/03/06 05:45:07;;;;;;;13.40;7.37;;;;;;;-3.51;73.90;101272.78;4973455;28;20031;-70
2021/03/06 05:47:33;;;;;;;12.23;7.93;;;;;;;-3.51;72.79;101270.22;4973536;28;20035;-72
2021/03/06 05:49:59;;;;;;;10.30;6.93;;;;;;;-3.55;72.74;101260.63;4970189;28;20034;-73
2021/03/06 05:52:27;;;;;;;12.87;6.33;;;;;;;-3.50;72.57;101257.34;4971796;28;20050;-73
2021/03/06 05:54:55;;;;;;;10.27;7.43;;;;;;;-3.52;73.16;101261.59;4958976;28;20114;-71
2021/03/06 05:57:20;;;;;;;10.37;8.13;;;;;;;-3.56;73.50;101266.63;4962140;28;20042;-71
2021/03/06 05:59:47;;;;;;;11.67;7.17;;;;;;;-3.55;73.41;101265.78;4971868;28;20042;-73
2021/03/06 06:02:16;;;;;;;15.47;9.50;;;;;;;-3.58;73.16;101265.69;4973225;28;20113;-72
2021/03/06 06:04:42;;;;;;;13.93;9.53;;;;;;;-3.62;72.79;101261.25;4972376;28;20031;-71
2021/03/06 06:07:08;;;;;;;17.47;8.97;;;;;;;-3.65;73.72;101267.19;4971603;28;20038;-72
2021/03/06 06:09:34;;;;;;;10.57;7.23;;;;;;;-3.67;73.80;101264.56;4971752;28;20058;-72
2021/03/06 06:12:00;;;;;;;10.47;8.27;;;;;;;-3.70;74.26;101266.16;4972231;28;20494;-72
2021/03/06 06:14:26;;;;;;;10.97;9.63;;;;;;;-3.70;73.22;101261.88;4971983;28;20173;-73
2021/03/06 06:16:52;;;;;;;20.57;9.40;;;;;;;-3.66;73.56;101262.88;4971592;28;20123;-71
2021/03/06 06:19:18;;;;;;;12.43;7.63;;;;;;;-3.62;73.64;101266.41;4966298;28;20034;-71
2021/03/06 06:21:48;;;;;;;14.50;9.03;;;;;;;-3.58;73.19;101276.00;4952268;29;20035;-72
2021/03/06 06:24:24;;;;;;;14.73;8.93;;;;;;;-3.64;72.83;101268.06;4941144;28;20035;-71
2021/03/06 06:27:05;;;;;;;13.10;9.63;;;;;;;-3.70;72.71;101263.59;4970725;28;20027;-71
2021/03/06 06:29:46;;;;;;;12.83;8.50;;;;;;;-3.68;73.32;101264.50;4969962;28;20043;-72
2021/03/06 06:32:16;;;;;;;10.97;7.97;;;;;;;-3.67;72.90;101261.09;4951457;29;20054;-72
2021/03/06 06:34:43;;;;;;;12.90;10.07;;;;;;;-3.68;73.16;101267.97;4952043;29;20043;-71
2021/03/06 06:37:14;;;;;;;17.57;9.80;;;;;;;-3.67;73.40;101263.66;4951631;29;20031;-73
2021/03/06 06:39:41;;;;;;;11.57;8.60;;;;;;;-3.63;72.67;101262.09;4951372;29;20055;-72
2021/03/06 06:42:07;;;;;;;13.53;9.33;;;;;;;-3.59;73.18;101264.81;4951916;29;20039;-73
2021/03/06 06:44:34;;;;;;;10.27;8.47;;;;;;;-3.52;73.81;101276.16;4952318;29;20091;-74
2021/03/06 06:47:13;;;;;;;16.23;7.37;;;;;;;-3.44;72.37;101273.88;4952183;29;20031;-74
2021/03/06 06:49:53;;;;;;;13.23;8.70;;;;;;;-3.36;72.79;101267.25;4954419;29;20039;-73
2021/03/06 06:52:20;;;;;;;9.70;6.90;;;;;;;-3.30;73.30;101277.72;4952628;29;20039;-72
2021/03/06 06:54:56;;;;;;;12.17;7.70;;;;;;;-3.18;72.43;101272.94;4952019;29;20035;-72
2021/03/06 06:57:23;;;;;;;18.10;7.95;;;;;;;-2.91;71.10;101269.44;4951477;29;20122;-71
2021/03/06 07:00:07;;;;;;;17.27;8.60;;;;;;;-2.66;70.46;101281.34;4951873;29;20028;-73
2021/03/06 07:02:33;;;;;;;17.40;7.88;;;;;;;-2.35;69.84;101280.50;4951500;29;20060;-73
2021/03/06 07:05:06;;;;;;;13.63;6.53;;;;;;;-2.04;69.47;101281.34;4952494;28;20039;-72
2021/03/06 07:07:39;;;;;;;12.20;7.57;;;;;;;-1.73;68.46;101282.97;4966316;28;20031;-73
2021/03/06 07:10:14;;;;;;;12.02;7.97;;;;;;;-1.44;67.09;101290.59;4959825;28;20086;-74
2021/03/06 07:12:42;;;;;;;8.32;6.20;;;;;;;-1.40;66.67;101290.69;4971401;28;20031;-72
2021/03/06 07:15:18;;;;;;;12.30;7.53;;;;;;;-1.42;66.90;101292.38;4971429;28;20101;-71
2021/03/06 07:17:45;;;;;;;12.35;6.53;;;;;;;-1.48;66.74;101289.63;4970987;28;20031;-72
2021/03/06 07:20:32;;;;;;;9.85;6.68;;;;;;;-1.49;66.94;101289.59;4970912;28;20090;-73
2021/03/06 07:23:11;;;;;;;10.68;6.95;;;;;;;-1.43;66.80;101298.38;4970343;28;20035;-71
2021/03/06 07:25:36;;;;;;;11.18;8.10;;;;;;;-1.35;66.85;101299.44;4970998;28;20050;-72
2021/03/06 07:28:02;;;;;;;13.50;8.02;;;;;;;-1.35;67.36;101306.34;4971121;28;20056;-70
2021/03/06 07:30:27;;;;;;;7.40;6.20;;;;;;;-1.27;67.48;101311.69;4970942;28;20042;-73
2021/03/06 07:32:56;;;;;;;8.50;5.63;;;;;;;-1.15;66.69;101306.81;4970466;28;20027;-71
2021/03/06 07:35:24;;;;;;;8.88;5.93;;;;;;;-1.03;66.04;101306.19;4970529;28;20085;-71
2021/03/06 07:37:56;;;;;;;9.80;6.47;;;;;;;-0.95;66.38;101297.75;4969851;28;20045;-72
2021/03/06 07:40:27;;;;;;;19.55;9.00;;;;;;;-0.88;66.20;101309.13;4970676;28;20038;-71
2021/03/06 07:42:56;;;;;;;9.65;6.80;;;;;;;-0.80;66.40;101307.56;4967753;28;20039;-71
2021/03/06 07:45:23;;;;;;;13.63;7.28;;;;;;;-0.68;65.93;101307.84;4951212;28;20035;-73
2021/03/06 07:48:07;;;;;;;9.55;6.90;;;;;;;-0.53;64.70;101307.28;4951378;28;20035;-70
2021/03/06 07:50:35;;;;;;;11.73;7.55;;;;;;;-0.47;65.39;101307.41;4951536;28;20042;-71
2021/03/06 07:53:01;;;;;;;12.27;7.78;;;;;;;-0.40;64.45;101313.56;4952327;28;20063;-71
2021/03/06 07:55:29;;;;;;;13.70;7.63;;;;;;;-0.36;63.12;101312.81;4934783;28;20031;-72
2021/03/06 07:58:10;;;;;;;11.40;7.55;;;;;;;-0.29;63.90;101306.91;4949904;28;20039;-72
2021/03/06 08:00:55;;;;;;;13.93;7.35;;;;;;;-0.16;63.08;101313.19;4950980;28;20156;-72
2021/03/06 08:03:23;;;;;;;16.33;8.65;;;;;;;-0.06;64.05;101312.50;4951012;28;20113;-72
2021/03/06 08:05:50;;;;;;;12.43;8.70;;;;;;;0.03;63.04;101318.75;4950839;28;20043;-72
2021/03/06 08:08:31;;;;;;;20.73;8.98;;;;;;;0.16;62.49;101308.59;4950536;28;20043;-71
2021/03/06 08:11:02;;;;;;;14.25;9.48;;;;;;;0.30;62.58;101301.06;4950789;28;20106;-70
2021/03/06 08:13:42;;;;;;;17.20;8.85;;;;;;;0.38;61.68;101315.03;4950634;28;20058;-70
2021/03/06 08:16:22;;;;;;;16.02;9.07;;;;;;;0.52;61.86;101312.69;4940509;28;20158;-73
2021/03/06 08:19:12;;;;;;;19.23;9.10;;;;;;;0.69;61.14;101306.88;4950653;28;20539;-71
2021/03/06 08:21:45;;;;;;;22.77;10.85;;;;;;;0.80;60.78;101305.31;4951158;28;20055;-72
2021/03/06 08:27:01;;;;;;;16.48;10.25;;;;;;;0.99;59.66;101298.69;4950703;28;20043;-71
2021/03/06 08:29:27;;;;;;;17.50;10.20;;;;;;;1.12;59.97;101294.53;4946208;28;20035;-72
2021/03/06 08:32:04;;;;;;;22.38;11.98;;;;;;;1.24;59.77;101292.09;4975650;28;20049;-70
2021/03/06 08:34:46;;;;;;;17.20;12.20;;;;;;;1.38;58.60;101294.84;4987532;28;20043;-72
2021/03/06 08:39:44;;;;;;;15.05;9.98;;;;;;;1.63;57.92;101293.44;4967412;28;20050;-73
2021/03/06 08:42:12;;;;;;;12.30;8.52;;;;;;;1.77;57.93;101289.25;4965985;28;20031;-71
2021/03/06 08:44:38;;;;;;;14.63;8.95;;;;;;;1.91;57.43;101292.88;4965354;29;20074;-72
2021/03/06 08:47:07;;;;;;;11.90;8.35;;;;;;;2.07;55.72;101291.31;4964423;29;20088;-71
2021/03/06 08:49:33;;;;;;;13.60;8.98;;;;;;;2.21;55.90;101295.78;4955968;28;20106;-70
2021/03/06 08:51:59;;;;;;;12.23;8.30;;;;;;;2.34;55.49;101288.09;4956284;29;20042;-72
2021/03/06 08:54:25;;;;;;;22.60;8.95;;;;;;;2.51;54.80;101288.25;4955835;29;20039;-72
2021/03/06 08:56:52;;;;;;;24.02;8.82;;;;;;;2.67;54.73;101281.41;4955277;29;20070;-71
2021/03/06 08:59:18;;;;;;;13.38;8.35;;;;;;;2.96;53.74;101288.56;4955037;29;20042;-71
2021/03/06 09:01:44;;;;;;;14.02;8.15;;;;;;;3.94;50.41;101288.06;4954245;29;20035;-70
2021/03/06 09:04:10;;;;;;;12.02;7.00;;;;;;;5.20;47.81;101278.44;4955102;29;20396;-72
2021/03/06 09:06:39;;;;;;;14.35;6.65;;;;;;;6.41;44.93;101280.41;4964794;28;20042;-70
2021/03/06 09:09:09;;;;;;;13.10;8.40;;;;;;;7.61;40.46;101276.53;4955066;28;20114;-70
2021/03/06 09:11:53;;;;;;;23.33;6.93;;;;;;;8.74;38.28;101270.47;4960124;28;20042;-70
2021/03/06 09:14:18;;;;;;;8.85;6.40;;;;;;;9.39;35.86;101275.38;4972720;28;20039;-68
2021/03/06 09:16:48;;;;;;;10.20;8.05;;;;;;;10.13;34.33;101271.13;4972253;28;20046;-70
2021/03/06 09:19:23;;;;;;;31.40;7.88;;;;;;;10.67;33.77;101274.19;4962831;28;20074;-70
2021/03/06 09:22:04;;;;;;;8.75;6.63;;;;;;;11.16;32.05;101269.38;4972941;28;20031;-70
2021/03/06 09:24:42;;;;;;;6.97;5.93;;;;;;;11.55;30.63;101266.53;4961057;28;20031;-70
2021/03/06 09:27:08;;;;;;;10.70;5.68;;;;;;;11.85;31.40;101269.16;4952878;29;20452;-70
2021/03/06 09:29:33;;;;;;;8.27;6.30;;;;;;;12.15;29.69;101273.50;4956794;28;20114;-70
2021/03/06 09:31:58;;;;;;;9.50;6.28;;;;;;;12.10;30.07;101278.06;4991553;28;20560;-70
2021/03/06 09:34:28;;;;;;;8.55;6.10;;;;;;;12.68;28.31;101277.94;4974671;28;21058;-70
2021/03/06 09:36:53;;;;;;;9.40;7.13;;;;;;;12.97;28.17;101279.59;4991211;28;20039;-69
2021/03/06 09:39:23;;;;;;;27.83;8.85;;;;;;;12.72;28.04;101282.19;4971535;28;20458;-70
2021/03/06 09:41:49;;;;;;;7.55;6.00;;;;;;;12.60;28.39;101269.38;4961120;28;20043;-70
2021/03/06 09:44:16;;;;;;;12.48;6.28;;;;;;;12.40;29.58;101268.31;4961795;28;20145;-70
2021/03/06 09:46:42;;;;;;;9.85;5.65;;;;;;;12.96;28.77;101263.75;4962600;28;20682;-70
2021/03/06 09:49:15;;;;;;;17.33;6.60;;;;;;;13.35;28.00;101264.13;4960895;28;20105;-70
2021/03/06 09:51:44;;;;;;;15.07;6.60;;;;;;;13.22;26.86;101266.34;4961886;28;20388;-70
2021/03/06 09:54:11;;;;;;;10.00;5.90;;;;;;;13.34;26.76;101261.53;4962754;28;20553;-69
2021/03/06 09:56:51;;;;;;;9.43;5.95;;;;;;;13.72;26.21;101268.03;4965429;28;20049;-70
2021/03/06 09:59:16;;;;;;;8.57;4.47;;;;;;;13.75;25.54;101265.25;4971537;28;20158;-71
2021/03/06 10:01:42;;;;;;;12.93;5.95;;;;;;;13.75;25.59;101267.91;4957898;28;20767;-71
2021/03/06 10:04:13;;;;;;;8.10;6.88;;;;;;;13.87;26.22;101261.28;4959783;28;20065;-71
2021/03/06 10:06:44;;;;;;;7.53;5.53;;;;;;;14.41;24.92;101259.13;4960798;28;20046;-70
2021/03/06 10:09:11;;;;;;;8.32;4.43;;;;;;;14.49;23.90;101260.50;4929099;28;20026;-71
2021/03/06 10:11:43;;;;;;;18.20;6.88;;;;;;;13.94;24.43;101262.75;4961571;28;20494;-71
2021/03/06 10:14:10;;;;;;;8.10;5.38;;;;;;;13.81;24.88;101257.09;4960297;28;20144;-72
2021/03/06 10:16:56;;;;;;;15.48;6.10;;;;;;;13.79;26.09;101260.72;4955119;28;20039;-70
2021/03/06 10:19:27;;;;;;;9.70;5.88;;;;;;;14.10;25.15;101255.94;4953351;28;20027;-70
2021/03/06 10:22:07;;;;;;;35.40;8.15;;;;;;;14.13;25.04;101257.59;4957958;28;20078;-70
2021/03/06 10:25:19;;;;;;;18.10;6.32;;;;;;;14.08;25.86;101255.13;4953395;29;20035;-71
2021/03/06 10:27:46;;;;;;;70.93;15.38;;;;;;;14.20;25.72;101255.53;4950780;28;20034;-70
2021/03/06 10:30:19;;;;;;;8.43;5.72;;;;;;;14.52;25.03;101246.25;4953029;28;20078;-68
2021/03/06 10:33:02;;;;;;;7.72;4.38;;;;;;;14.66;22.81;101243.91;4951941;28;20510;-69
2021/03/06 10:35:34;;;;;;;6.28;3.63;;;;;;;14.33;23.30;101232.91;4952662;29;20043;-70
2021/03/06 10:38:02;;;;;;;5.57;3.60;;;;;;;13.92;22.50;101233.66;4965480;28;20122;-68
2021/03/06 10:40:58;;;;;;;7.03;4.30;;;;;;;13.80;22.93;101234.13;4960794;28;20109;-69
2021/03/06 10:43:23;;;;;;;16.73;4.67;;;;;;;13.48;23.06;101236.25;4949070;28;20248;-68
2021/03/06 10:45:49;;;;;;;5.75;4.03;;;;;;;12.78;23.03;101230.88;4956257;28;20036;-71
2021/03/06 10:48:29;;;;;;;19.25;6.38;;;;;;;12.27;23.91;101229.94;4954391;28;20161;-70
2021/03/06 10:50:55;;;;;;;8.52;5.43;;;;;;;11.63;25.78;101240.72;4947180;28;20797;-70
2021/03/06 10:53:22;;;;;;;7.93;4.47;;;;;;;10.84;26.52;101236.81;4957814;28;20150;-70
2021/03/06 10:55:49;;;;;;;7.85;4.30;;;;;;;10.52;27.21;101237.69;4934987;28;20073;-71
2021/03/06 10:58:15;;;;;;;11.45;6.15;;;;;;;9.94;28.62;101234.66;4968336;28;20053;-69
2021/03/06 11:00:43;;;;;;;11.95;6.20;;;;;;;9.41;29.13;101239.34;4967961;28;20363;-73
2021/03/06 11:03:10;;;;;;;10.07;4.93;;;;;;;9.22;29.58;101241.50;4953134;28;20034;-71
2021/03/06 11:05:37;;;;;;;21.85;5.85;;;;;;;8.88;30.25;101236.03;4962386;28;20055;-73
2021/03/06 11:08:19;;;;;;;24.45;7.45;;;;;;;8.71;29.82;101247.75;4949313;29;20043;-71
2021/03/06 11:10:50;;;;;;;9.68;4.82;;;;;;;8.42;30.20;101245.63;4947211;28;20445;-69
2021/03/06 11:13:16;;;;;;;7.38;4.65;;;;;;;8.06;31.44;101240.00;4945512;28;20442;-70
2021/03/06 11:15:49;;;;;;;8.43;4.43;;;;;;;7.78;32.34;101242.19;4957128;28;20035;-71
2021/03/06 11:18:15;;;;;;;5.70;4.53;;;;;;;7.71;32.98;101237.91;4968161;28;20121;-70
2021/03/06 11:20:41;;;;;;;7.25;4.93;;;;;;;7.61;33.51;101239.81;4948704;28;20032;-71
2021/03/06 11:23:07;;;;;;;7.80;4.72;;;;;;;7.56;33.45;101228.50;4968716;28;20039;-71
2021/03/06 11:25:33;;;;;;;5.80;4.35;;;;;;;7.41;32.99;101226.06;4969645;28;20041;-70
2021/03/06 11:28:01;;;;;;;10.43;4.47;;;;;;;7.45;33.21;101233.00;4969915;28;20038;-70
2021/03/06 11:30:31;;;;;;;27.58;5.55;;;;;;;7.39;33.62;101231.34;4965921;28;20059;-72
2021/03/06 11:32:59;;;;;;;9.95;5.70;;;;;;;7.39;33.93;101220.00;4948772;28;20047;-72
2021/03/06 11:35:26;;;;;;;8.20;5.53;;;;;;;7.28;34.22;101228.84;4950894;28;20034;-73
2021/03/06 11:37:52;;;;;;;8.15;4.60;;;;;;;7.24;34.60;101218.44;4948692;29;20035;-71